This is the latest recevied weather packets stored in our database for station/object N5XL. If no packets are shown the sender has not sent any weather packets the latest 10 day(s).
| Time | Temp. | Humidity | Pressure | Rain* | Wind** | Luminosity | Snow |
|---|---|---|---|---|---|---|---|
| 1777254843 | 22.78° C | 26% | 1010.4 hPa | 0 mm | - | 10 W/m² | - |
| 1777251603 | 25.56° C | 20% | 1010 hPa | 0 mm | - | 82 W/m² | - |
| 1777248543 | 26.11° C | 19% | 1009.9 hPa | 0 mm | - | 177 W/m² | - |
| 1777246023 | 26.67° C | 18% | 1009.5 hPa | 0 mm | - | 424 W/m² | - |
| 1777241343 | 25.56° C | 22% | 1010 hPa | 0 mm | - | 692 W/m² | - |
| 1777240464 | 25° C | 24% | 1010.1 hPa | 0 mm | - | 250 W/m² | - |
| 1777239903 | 24.44° C | 23% | 1010.3 hPa | 0 mm | - | 201 W/m² | - |
| 1777239363 | 25° C | 23% | 1010.2 hPa | 0 mm | - | 329 W/m² | - |
| 1777236845 | 25° C | 22% | 1010.7 hPa | 0 mm | - | 843 W/m² | - |
| 1777232703 | 24.44° C | 24% | 1011.3 hPa | 0 mm | - | 877 W/m² | - |
| 1777230024 | 24.44° C | 26% | 1011.5 hPa | 0 mm | - | 858 W/m² | - |
| 1777229643 | 24.44° C | 25% | 1011.6 hPa | 0 mm | - | 916 W/m² | - |
| 1777228563 | 25° C | 26% | 1011.8 hPa | 0 mm | - | 870 W/m² | - |
| 1777224424 | 25° C | 26% | 1012.1 hPa | 0 mm | - | 732 W/m² | - |
| 1777223883 | 25° C | 27% | 1012 hPa | 0 mm | - | 712 W/m² | - |
| 1777208943 | 17.78° C | 36% | 1009.7 hPa | 0 mm | - | 16 W/m² | - |
| 1777208045 | 17.78° C | 36% | 1009.3 hPa | 0 mm | - | 7 W/m² | - |
| 1777207503 | 17.78° C | 36% | 1009.1 hPa | 0 mm | - | 3 W/m² | - |
| 1777205343 | 18.33° C | 36% | 1008.3 hPa | 0 mm | - | 0 W/m² | - |
| 1777203363 | 18.89° C | 32% | 1008 hPa | 0 mm | - | 0 W/m² | - |
| 1777200843 | 19.44° C | 29% | 1007.7 hPa | 0 mm | - | 0 W/m² | - |
| 1777200324 | 19.44° C | 28% | 1007.7 hPa | 0 mm | - | 0 W/m² | - |
| 1777198684 | 20° C | 28% | 1007.5 hPa | 0 mm | - | 0 W/m² | - |
| 1777196703 | 21.11° C | 28% | 1007.5 hPa | 0 mm | - | 0 W/m² | - |
| 1777194004 | 21.67° C | 27% | 1007.5 hPa | 0 mm | - | 0 W/m² | - |
* Rain latest hour (hover to see other rain measurements)
** Current wind speed in m/s (hover to see current wind gust speed)